createdAt,value
2023-06-21T00:01:35.837Z,10.07
2023-06-21T00:04:03.624Z,12.60
2023-06-21T00:06:31.378Z,10.40
2023-06-21T00:08:59.022Z,10.83
2023-06-21T00:11:26.932Z,9.13
2023-06-21T00:13:55.925Z,6.10
2023-06-21T00:16:25.273Z,4.90
2023-06-21T00:18:53.008Z,10.03
2023-06-21T00:21:20.949Z,7.10
2023-06-21T00:23:48.584Z,8.07
2023-06-21T00:26:16.342Z,9.30
2023-06-21T00:28:44.129Z,9.87
2023-06-21T00:31:12.206Z,6.00
2023-06-21T00:33:41.258Z,5.77
2023-06-21T00:36:08.953Z,11.93
2023-06-21T00:38:36.976Z,6.60
2023-06-21T00:41:06.223Z,8.50
2023-06-21T00:43:34.125Z,5.80
2023-06-21T00:46:02.078Z,8.93
2023-06-21T00:48:30.428Z,6.53
2023-06-21T00:51:01.481Z,9.20
2023-06-21T00:53:30.580Z,4.97
2023-06-21T00:55:58.415Z,5.10
2023-06-21T00:58:26.140Z,13.63
2023-06-21T01:00:55.173Z,11.53
2023-06-21T01:03:25.376Z,7.10
2023-06-21T01:06:00.613Z,5.13
2023-06-21T01:08:36.420Z,9.30
2023-06-21T01:11:12.038Z,8.43
2023-06-21T01:13:49.856Z,5.03
2023-06-21T01:16:18.601Z,6.20
2023-06-21T01:18:48.125Z,6.30
2023-06-21T01:21:19.616Z,7.87
2023-06-21T01:23:53.748Z,4.90
2023-06-21T01:26:31.311Z,7.60
2023-06-21T01:29:07.728Z,4.33
2023-06-21T01:31:36.127Z,8.40
2023-06-21T01:34:05.449Z,6.77
2023-06-21T01:36:33.309Z,5.13
2023-06-21T01:39:00.980Z,7.30
2023-06-21T01:41:30.674Z,8.10
2023-06-21T01:43:59.480Z,5.00
2023-06-21T01:46:29.296Z,7.60
2023-06-21T01:48:57.664Z,6.67
2023-06-21T01:51:25.590Z,6.90
2023-06-21T01:53:53.331Z,6.37
2023-06-21T01:56:21.955Z,5.53
2023-06-21T01:58:50.757Z,8.57
2023-06-21T02:01:21.766Z,5.90
2023-06-21T02:03:53.404Z,6.60
2023-06-21T02:06:22.571Z,5.13
2023-06-21T02:08:51.670Z,9.80
2023-06-21T02:11:20.250Z,8.17
2023-06-21T02:13:49.534Z,5.77
2023-06-21T02:16:18.193Z,9.50
2023-06-21T02:18:45.982Z,11.23
2023-06-21T02:21:17.018Z,6.93
2023-06-21T02:23:44.797Z,6.70
2023-06-21T02:26:13.707Z,6.90
2023-06-21T02:28:43.102Z,9.70
2023-06-21T02:31:10.882Z,5.43
2023-06-21T02:33:38.612Z,4.90
2023-06-21T02:36:06.903Z,9.13
2023-06-21T02:38:37.207Z,9.80
2023-06-21T02:41:04.887Z,7.10
2023-06-21T02:43:32.587Z,8.20
2023-06-21T02:46:01.736Z,11.37
2023-06-21T02:48:29.435Z,6.00
2023-06-21T02:50:58.174Z,13.47
2023-06-21T02:53:27.222Z,6.80
2023-06-21T02:55:56.621Z,7.30
2023-06-21T02:58:24.342Z,6.60
2023-06-21T03:00:52.032Z,6.20
2023-06-21T03:03:19.901Z,7.87
2023-06-21T03:05:47.749Z,7.90
2023-06-21T03:08:15.428Z,6.13
2023-06-21T03:10:44.167Z,7.13
2023-06-21T03:13:13.168Z,6.27
2023-06-21T03:15:40.852Z,9.20
2023-06-21T03:18:08.568Z,6.83
2023-06-21T03:20:36.125Z,8.80
2023-06-21T03:23:03.742Z,7.90
2023-06-21T03:25:31.524Z,6.40
2023-06-21T03:28:00.316Z,8.13
2023-06-21T03:30:30.739Z,6.80
2023-06-21T03:33:00.200Z,5.90
2023-06-21T03:35:30.274Z,8.77
2023-06-21T03:37:58.342Z,8.07
2023-06-21T03:40:34.053Z,7.90
2023-06-21T03:43:01.635Z,9.60
2023-06-21T03:45:31.407Z,8.70
2023-06-21T03:48:04.765Z,10.53
2023-06-21T03:50:33.255Z,12.20
2023-06-21T03:53:01.041Z,13.17
2023-06-21T03:55:29.397Z,12.63
2023-06-21T03:57:57.186Z,10.40
2023-06-21T04:00:26.206Z,12.73
2023-06-21T04:02:57.138Z,17.20
2023-06-21T04:05:24.771Z,25.23
2023-06-21T04:07:52.363Z,13.30
2023-06-21T04:10:19.976Z,10.10
2023-06-21T04:12:47.687Z,12.07
2023-06-21T04:15:17.146Z,11.77
2023-06-21T04:17:44.946Z,9.23
2023-06-21T04:20:16.482Z,9.07
2023-06-21T04:22:45.741Z,8.70
2023-06-21T04:25:13.503Z,10.03
2023-06-21T04:27:41.829Z,11.73
2023-06-21T04:30:11.512Z,10.50
2023-06-21T04:32:47.041Z,17.87
2023-06-21T04:35:17.688Z,10.67
2023-06-21T04:37:46.924Z,12.80
2023-06-21T04:40:17.659Z,10.97
2023-06-21T04:42:47.471Z,12.83
2023-06-21T04:45:16.377Z,15.57
2023-06-21T04:50:21.454Z,12.40
2023-06-21T04:52:51.581Z,11.43
2023-06-21T04:55:20.327Z,11.63
2023-06-21T04:57:48.718Z,11.77
2023-06-21T05:00:17.032Z,11.97
2023-06-21T05:02:44.727Z,11.50
2023-06-21T05:05:12.471Z,13.53
2023-06-21T05:07:40.482Z,13.73
2023-06-21T05:10:10.889Z,14.17
2023-06-21T05:12:38.760Z,15.00
2023-06-21T05:15:07.489Z,12.90
2023-06-21T05:17:35.330Z,11.50
2023-06-21T05:20:03.946Z,12.37
2023-06-21T05:22:31.541Z,12.23
2023-06-21T05:24:59.270Z,13.60
2023-06-21T05:27:28.153Z,15.50
2023-06-21T05:29:56.124Z,13.40
2023-06-21T05:32:26.573Z,14.63
2023-06-21T05:34:54.569Z,14.77
2023-06-21T05:37:27.956Z,17.50
2023-06-21T05:39:55.861Z,17.80
2023-06-21T05:42:25.963Z,16.90
2023-06-21T05:44:55.184Z,18.37
2023-06-21T05:47:23.605Z,21.80
2023-06-21T05:49:51.413Z,20.17
2023-06-21T05:52:19.028Z,20.50
2023-06-21T05:54:46.579Z,27.00
2023-06-21T05:57:14.813Z,26.73
2023-06-21T05:59:44.332Z,28.53
2023-06-21T06:02:13.501Z,28.93
2023-06-21T06:04:41.310Z,29.73
2023-06-21T06:07:08.954Z,31.23
2023-06-21T06:09:37.555Z,32.27
2023-06-21T06:12:07.820Z,29.87
2023-06-21T06:14:36.764Z,30.43
2023-06-21T06:17:04.791Z,32.80
2023-06-21T06:19:33.710Z,33.40
2023-06-21T06:22:01.319Z,34.67
2023-06-21T06:24:29.242Z,35.00
2023-06-21T06:26:56.795Z,38.13
2023-06-21T06:29:24.957Z,32.90
2023-06-21T06:31:53.907Z,33.43
2023-06-21T06:34:22.115Z,32.37
2023-06-21T06:37:02.950Z,32.20
2023-06-21T06:39:38.097Z,31.93
2023-06-21T06:42:06.565Z,30.43
2023-06-21T06:44:34.181Z,31.10
2023-06-21T06:47:02.429Z,28.67
2023-06-21T06:49:30.203Z,31.60
2023-06-21T06:51:59.628Z,28.70
2023-06-21T06:54:27.709Z,30.40
2023-06-21T06:56:55.517Z,29.40
2023-06-21T06:59:23.877Z,33.27
2023-06-21T07:01:51.789Z,27.30
2023-06-21T07:04:19.761Z,30.37
2023-06-21T07:06:47.625Z,30.17
2023-06-21T07:09:16.928Z,32.63
2023-06-21T07:11:44.790Z,27.83
2023-06-21T07:14:12.599Z,28.33
2023-06-21T07:16:44.220Z,26.13
2023-06-21T07:19:11.778Z,27.27
2023-06-21T07:21:40.249Z,25.80
2023-06-21T07:24:07.832Z,27.27
2023-06-21T07:26:36.687Z,27.90
2023-06-21T07:29:04.465Z,28.30
2023-06-21T07:31:33.728Z,26.13
2023-06-21T07:34:06.084Z,27.43
2023-06-21T07:36:35.795Z,28.30
2023-06-21T07:39:05.882Z,25.53
2023-06-21T07:41:38.114Z,25.80
2023-06-21T07:44:05.966Z,27.23
2023-06-21T07:46:33.526Z,24.57
2023-06-21T07:49:01.081Z,23.37
2023-06-21T07:51:28.646Z,21.70
2023-06-21T07:53:56.193Z,20.60
2023-06-21T07:56:24.120Z,22.67
2023-06-21T07:58:53.148Z,22.87
2023-06-21T08:01:20.840Z,23.87
2023-06-21T08:03:48.754Z,22.80
2023-06-21T08:06:16.777Z,22.27
2023-06-21T08:08:45.113Z,23.03
2023-06-21T08:11:13.155Z,22.43
2023-06-21T08:13:41.010Z,24.07
2023-06-21T08:16:10.094Z,23.03
2023-06-21T08:18:37.724Z,23.83
2023-06-21T08:21:06.603Z,22.03
2023-06-21T08:23:34.169Z,23.57
2023-06-21T08:26:01.875Z,21.80
2023-06-21T08:28:29.414Z,23.17
2023-06-21T08:30:57.176Z,21.97
2023-06-21T08:33:26.055Z,21.53
2023-06-21T08:35:53.699Z,18.43
2023-06-21T08:38:27.986Z,18.20
2023-06-21T08:41:00.225Z,17.50
2023-06-21T08:43:28.809Z,16.90
2023-06-21T08:45:56.590Z,14.43
2023-06-21T08:48:25.980Z,15.13
2023-06-21T08:50:53.656Z,15.80
2023-06-21T08:53:30.040Z,15.07
2023-06-21T08:55:58.437Z,17.03
2023-06-21T08:58:27.580Z,15.27
2023-06-21T09:00:56.618Z,14.30
2023-06-21T09:03:29.582Z,15.97
2023-06-21T09:06:00.308Z,17.40
2023-06-21T09:08:27.961Z,19.50
2023-06-21T09:10:56.047Z,15.17
2023-06-21T09:13:25.975Z,18.30
2023-06-21T09:15:54.915Z,15.93
2023-06-21T09:18:22.472Z,16.73
2023-06-21T09:20:52.446Z,17.17
2023-06-21T09:23:19.992Z,13.63
2023-06-21T09:25:49.352Z,13.30
2023-06-21T09:28:17.062Z,13.60
2023-06-21T09:30:45.773Z,13.00
2023-06-21T09:33:13.959Z,10.43
2023-06-21T09:35:42.550Z,11.30
2023-06-21T09:38:25.686Z,12.27
2023-06-21T09:40:53.387Z,15.90
2023-06-21T09:43:22.546Z,11.50
2023-06-21T09:46:04.484Z,11.10
2023-06-21T09:48:36.353Z,11.77
2023-06-21T09:51:05.113Z,11.03
2023-06-21T09:53:34.261Z,17.73
2023-06-21T09:56:02.593Z,10.83
2023-06-21T09:58:30.570Z,9.90
2023-06-21T10:00:59.331Z,11.20
2023-06-21T10:03:29.054Z,10.57
2023-06-21T10:05:57.999Z,11.93
2023-06-21T10:08:26.854Z,13.30
2023-06-21T10:10:56.194Z,10.50
2023-06-21T10:13:27.512Z,13.17
2023-06-21T10:15:56.189Z,14.33
2023-06-21T10:18:24.366Z,11.40
2023-06-21T10:20:56.031Z,11.90
2023-06-21T10:23:25.175Z,11.83
2023-06-21T10:25:54.962Z,14.70
2023-06-21T10:28:24.915Z,11.60
2023-06-21T10:30:55.068Z,19.80
2023-06-21T10:33:23.100Z,9.63
2023-06-21T10:35:53.393Z,11.47
2023-06-21T10:38:28.292Z,10.57
2023-06-21T10:40:56.343Z,16.20
2023-06-21T10:43:25.907Z,12.10
2023-06-21T10:45:53.910Z,12.00
2023-06-21T10:48:21.941Z,12.90
2023-06-21T10:50:50.226Z,11.07
2023-06-21T10:53:21.206Z,10.80
2023-06-21T10:55:51.267Z,11.13
2023-06-21T10:58:19.218Z,9.13
2023-06-21T11:00:49.373Z,9.47
2023-06-21T11:03:17.988Z,11.33
2023-06-21T11:05:46.247Z,12.20
2023-06-21T11:08:16.421Z,9.30
2023-06-21T11:10:47.815Z,14.47
2023-06-21T11:13:16.387Z,9.60
2023-06-21T11:15:45.218Z,12.80
2023-06-21T11:18:19.962Z,15.60
2023-06-21T11:20:49.263Z,10.77
2023-06-21T11:23:18.167Z,9.63
2023-06-21T11:25:52.316Z,10.10
2023-06-21T11:28:24.430Z,10.63
2023-06-21T11:31:13.241Z,10.87
2023-06-21T11:33:53.613Z,10.20
2023-06-21T11:36:26.528Z,9.13
2023-06-21T11:39:00.773Z,10.37
2023-06-21T11:41:37.749Z,8.50
2023-06-21T11:44:05.766Z,8.80
2023-06-21T11:46:43.803Z,8.97
2023-06-21T11:49:12.850Z,9.43
2023-06-21T11:51:50.996Z,10.50
2023-06-21T11:54:30.980Z,9.40
2023-06-21T11:56:58.799Z,12.03
2023-06-21T11:59:26.688Z,7.83
2023-06-21T12:01:54.467Z,7.57
2023-06-21T12:04:27.736Z,9.97
2023-06-21T12:06:56.327Z,7.43
2023-06-21T12:09:24.254Z,12.83
2023-06-21T12:11:52.253Z,9.03
2023-06-21T12:14:21.330Z,9.00
2023-06-21T12:16:51.576Z,15.20
2023-06-21T12:19:22.390Z,12.50
2023-06-21T12:21:51.370Z,9.90
2023-06-21T12:24:27.492Z,10.03
2023-06-21T12:26:57.150Z,10.83
2023-06-21T12:29:25.375Z,8.77
2023-06-21T12:31:54.352Z,8.93
2023-06-21T12:34:22.200Z,14.40
2023-06-21T12:36:52.960Z,8.47
2023-06-21T12:39:22.716Z,7.03
2023-06-21T12:41:53.139Z,9.80
2023-06-21T12:44:22.633Z,7.73
2023-06-21T12:46:50.955Z,5.37
2023-06-21T12:49:20.579Z,5.70
2023-06-21T12:51:48.840Z,5.17
2023-06-21T12:54:21.567Z,6.70
2023-06-21T12:56:51.773Z,6.80
2023-06-21T12:59:19.527Z,6.53
2023-06-21T13:01:47.581Z,15.17
2023-06-21T13:04:16.756Z,12.73
2023-06-21T13:06:44.627Z,5.30
2023-06-21T13:09:12.707Z,11.73
2023-06-21T13:11:42.167Z,6.23
2023-06-21T13:14:10.402Z,6.43
2023-06-21T13:16:38.168Z,6.90
2023-06-21T13:19:08.319Z,10.10
2023-06-21T13:21:36.037Z,9.13
2023-06-21T13:24:04.214Z,9.80
2023-06-21T13:26:32.223Z,5.30
2023-06-21T13:29:01.185Z,7.17
2023-06-21T13:31:28.944Z,6.57
2023-06-21T13:33:56.536Z,6.97
2023-06-21T13:36:24.755Z,6.17
2023-06-21T13:38:52.379Z,12.67
2023-06-21T13:41:20.114Z,5.40
2023-06-21T13:43:49.420Z,10.73
2023-06-21T13:46:18.477Z,7.70
2023-06-21T13:48:46.580Z,8.80
2023-06-21T13:51:16.271Z,5.70
2023-06-21T13:53:45.287Z,11.77
2023-06-21T13:56:12.998Z,5.13
2023-06-21T13:58:40.674Z,6.67
2023-06-21T14:01:08.661Z,4.33
2023-06-21T14:03:37.759Z,5.00
2023-06-21T14:06:05.926Z,4.67
2023-06-21T14:08:33.564Z,19.13
2023-06-21T14:11:01.150Z,3.40
2023-06-21T14:13:28.762Z,5.00
2023-06-21T14:15:56.480Z,6.40
2023-06-21T14:18:37.636Z,5.10
2023-06-21T14:21:13.457Z,4.23
2023-06-21T14:23:41.306Z,6.70
2023-06-21T14:26:08.982Z,4.87
2023-06-21T14:28:37.347Z,16.60
2023-06-21T14:31:05.085Z,12.77
2023-06-21T14:33:32.743Z,7.50
2023-06-21T14:36:02.614Z,5.43
2023-06-21T14:38:32.130Z,3.60
2023-06-21T14:40:59.872Z,4.50
2023-06-21T14:43:27.472Z,10.13
2023-06-21T14:45:55.221Z,3.23
2023-06-21T14:48:22.969Z,4.53
2023-06-21T14:50:50.606Z,5.00
2023-06-21T14:53:18.563Z,7.73
2023-06-21T14:55:47.714Z,4.13
2023-06-21T14:58:15.317Z,4.30
2023-06-21T15:00:42.898Z,3.70
2023-06-21T15:03:10.734Z,3.83
2023-06-21T15:05:44.853Z,4.40
2023-06-21T15:08:17.770Z,4.63
2023-06-21T15:10:46.838Z,3.70
2023-06-21T15:13:14.707Z,5.33
2023-06-21T15:15:42.467Z,4.27
2023-06-21T15:18:10.140Z,4.97
2023-06-21T15:20:37.857Z,4.27
2023-06-21T15:23:06.044Z,3.60
2023-06-21T15:25:33.848Z,3.83
2023-06-21T15:28:03.374Z,8.90
2023-06-21T15:30:31.399Z,7.13
2023-06-21T15:32:59.319Z,3.63
2023-06-21T15:35:27.265Z,4.07
2023-06-21T15:37:56.489Z,5.00
2023-06-21T15:40:24.416Z,5.03
2023-06-21T15:42:53.416Z,4.67
2023-06-21T15:45:22.668Z,3.87
2023-06-21T15:47:50.576Z,5.50
2023-06-21T15:50:18.560Z,4.90
2023-06-21T15:52:46.382Z,4.50
2023-06-21T15:55:14.204Z,4.63
2023-06-21T15:57:42.602Z,5.33
2023-06-21T16:00:11.591Z,3.63
2023-06-21T16:02:41.510Z,4.83
2023-06-21T16:05:09.536Z,3.47
2023-06-21T16:07:37.412Z,4.40
2023-06-21T16:10:05.543Z,7.80
2023-06-21T16:12:34.075Z,4.63
2023-06-21T16:15:01.835Z,6.20
2023-06-21T16:17:29.636Z,5.40
2023-06-21T16:19:59.142Z,3.43
2023-06-21T16:22:26.884Z,4.53
2023-06-21T16:24:54.764Z,5.00
2023-06-21T16:27:23.680Z,4.50
2023-06-21T16:29:51.421Z,4.73
2023-06-21T16:32:19.266Z,6.13
2023-06-21T16:34:47.552Z,6.50
2023-06-21T16:37:16.973Z,3.97
2023-06-21T16:39:44.597Z,6.00
2023-06-21T16:42:12.294Z,7.07
2023-06-21T16:44:40.112Z,4.03
2023-06-21T16:47:08.272Z,4.57
2023-06-21T16:49:36.061Z,4.03
2023-06-21T16:52:04.061Z,4.80
2023-06-21T16:54:33.391Z,5.83
2023-06-21T16:57:04.382Z,4.67
2023-06-21T16:59:32.707Z,4.17
2023-06-21T17:02:00.588Z,7.60
2023-06-21T17:04:28.390Z,3.60
2023-06-21T17:06:56.050Z,6.40
2023-06-21T17:09:24.014Z,5.23
2023-06-21T17:11:53.622Z,6.83
2023-06-21T17:14:21.640Z,5.07
2023-06-21T17:16:49.706Z,5.33
2023-06-21T17:19:17.534Z,4.63
2023-06-21T17:21:45.544Z,5.13
2023-06-21T17:24:13.320Z,5.10
2023-06-21T17:26:43.618Z,6.13
2023-06-21T17:29:12.794Z,5.00
2023-06-21T17:31:40.545Z,4.53
2023-06-21T17:34:08.405Z,6.10
2023-06-21T17:36:36.106Z,3.83
2023-06-21T17:39:03.972Z,3.87
2023-06-21T17:41:31.825Z,5.00
2023-06-21T17:43:59.834Z,4.27
2023-06-21T17:46:29.021Z,7.30
2023-06-21T17:48:56.991Z,5.90
2023-06-21T17:51:25.707Z,5.07
2023-06-21T17:53:54.035Z,3.77
2023-06-21T17:56:22.583Z,4.23
2023-06-21T17:58:50.266Z,4.60
2023-06-21T18:01:18.066Z,3.43
2023-06-21T18:03:47.494Z,3.87
2023-06-21T18:06:15.443Z,4.60
2023-06-21T18:08:43.263Z,5.20
2023-06-21T18:11:11.039Z,6.40
2023-06-21T18:13:39.175Z,4.10
2023-06-21T18:16:07.219Z,4.33
2023-06-21T18:18:35.287Z,9.97
2023-06-21T18:21:04.853Z,4.40
2023-06-21T18:23:32.751Z,4.17
2023-06-21T18:26:00.999Z,5.90
2023-06-21T18:28:29.421Z,3.53
2023-06-21T18:30:57.450Z,4.47
2023-06-21T18:33:25.492Z,3.73
2023-06-21T18:35:53.795Z,5.53
2023-06-21T18:38:23.011Z,5.00
2023-06-21T18:40:51.081Z,3.33
2023-06-21T18:43:19.085Z,9.63
2023-06-21T18:45:47.114Z,3.53
2023-06-21T18:48:15.411Z,8.00
2023-06-21T18:50:43.176Z,4.57
2023-06-21T18:53:11.050Z,4.90
2023-06-21T18:55:40.250Z,6.03
2023-06-21T18:58:08.026Z,3.23
2023-06-21T19:00:35.776Z,4.40
2023-06-21T19:03:04.808Z,4.10
2023-06-21T19:05:33.049Z,6.40
2023-06-21T19:08:00.986Z,4.20
2023-06-21T19:10:29.335Z,5.90
2023-06-21T19:12:59.223Z,5.33
2023-06-21T19:15:26.995Z,3.67
2023-06-21T19:17:56.807Z,5.50
2023-06-21T19:20:25.075Z,6.97
2023-06-21T19:22:53.920Z,4.80
2023-06-21T19:25:22.332Z,4.50
2023-06-21T19:27:50.303Z,4.40
2023-06-21T19:30:20.053Z,4.93
2023-06-21T19:32:48.223Z,4.90
2023-06-21T19:35:20.347Z,3.90
2023-06-21T19:37:48.706Z,4.83
2023-06-21T19:40:16.563Z,4.87
2023-06-21T19:42:45.585Z,8.77
2023-06-21T19:45:13.802Z,4.50
2023-06-21T19:47:43.219Z,4.97
2023-06-21T19:50:11.693Z,4.93
2023-06-21T19:52:39.720Z,4.73
2023-06-21T19:55:09.746Z,4.07
2023-06-21T19:57:38.026Z,5.47
2023-06-21T20:00:10.400Z,4.53
2023-06-21T20:02:41.047Z,4.20
2023-06-21T20:05:11.670Z,6.83
2023-06-21T20:07:39.428Z,4.13
2023-06-21T20:10:08.585Z,3.30
2023-06-21T20:12:36.381Z,6.57
2023-06-21T20:15:04.689Z,8.63
2023-06-21T20:17:32.668Z,4.47
2023-06-21T20:20:00.655Z,4.33
2023-06-21T20:22:30.011Z,5.50
2023-06-21T20:24:59.579Z,4.63
2023-06-21T20:27:27.384Z,4.70
2023-06-21T20:29:55.135Z,4.67
2023-06-21T20:32:24.032Z,4.73
2023-06-21T20:34:52.193Z,5.37
2023-06-21T20:37:20.020Z,4.00
2023-06-21T20:39:51.473Z,5.10
2023-06-21T20:42:19.271Z,4.93
2023-06-21T20:44:47.817Z,4.80
2023-06-21T20:47:15.622Z,5.50
2023-06-21T20:49:43.396Z,4.90
2023-06-21T20:52:11.200Z,5.73
2023-06-21T20:54:39.131Z,5.33
2023-06-21T20:57:08.648Z,6.63
2023-06-21T20:59:39.112Z,6.60
2023-06-21T21:02:07.746Z,4.60
2023-06-21T21:04:35.869Z,4.27
2023-06-21T21:07:03.753Z,4.30
2023-06-21T21:09:31.651Z,5.70
2023-06-21T21:11:59.405Z,4.90
2023-06-21T21:14:28.617Z,4.20
2023-06-21T21:16:56.446Z,6.27
2023-06-21T21:19:25.082Z,4.87
2023-06-21T21:21:52.924Z,4.80
2023-06-21T21:24:21.488Z,8.50
2023-06-21T21:26:49.300Z,6.60
2023-06-21T21:29:17.936Z,7.30
2023-06-21T21:31:53.313Z,6.10
2023-06-21T21:34:21.718Z,6.23
2023-06-21T21:36:50.124Z,7.67
2023-06-21T21:39:18.905Z,5.00
2023-06-21T21:41:46.559Z,5.80
2023-06-21T21:44:14.453Z,7.57
2023-06-21T21:46:42.256Z,6.23
2023-06-21T21:49:11.169Z,9.47
2023-06-21T21:51:38.779Z,5.10
2023-06-21T21:54:06.482Z,5.13
2023-06-21T21:56:34.128Z,5.60
2023-06-21T21:59:01.835Z,5.93
2023-06-21T22:01:29.489Z,9.57
2023-06-21T22:03:57.425Z,6.40
2023-06-21T22:06:26.587Z,6.77
2023-06-21T22:08:55.039Z,5.17
2023-06-21T22:11:22.789Z,5.67
2023-06-21T22:13:50.460Z,7.07
2023-06-21T22:16:18.572Z,8.13
2023-06-21T22:18:46.453Z,9.20
2023-06-21T22:21:14.878Z,5.40
2023-06-21T22:23:44.332Z,5.80
2023-06-21T22:26:12.022Z,5.23
2023-06-21T22:28:39.868Z,5.20
2023-06-21T22:31:07.779Z,5.03
2023-06-21T22:33:35.472Z,5.20
2023-06-21T22:36:03.077Z,7.70
2023-06-21T22:38:30.637Z,6.23
2023-06-21T22:40:59.672Z,5.10
2023-06-21T22:43:27.244Z,13.23
2023-06-21T22:45:54.801Z,8.50
2023-06-21T22:48:23.181Z,6.70
2023-06-21T22:50:50.788Z,6.53
2023-06-21T22:53:18.394Z,6.03
2023-06-21T22:55:46.024Z,6.83
2023-06-21T22:58:15.089Z,5.60
2023-06-21T23:00:43.110Z,6.50
2023-06-21T23:03:13.960Z,6.87
2023-06-21T23:05:47.522Z,9.83
2023-06-21T23:08:15.327Z,10.53
2023-06-21T23:10:42.944Z,6.33
2023-06-21T23:13:10.509Z,5.90
2023-06-21T23:15:39.439Z,7.70
2023-06-21T23:18:08.749Z,6.70
2023-06-21T23:20:37.555Z,9.40
2023-06-21T23:23:16.022Z,7.43
2023-06-21T23:25:45.960Z,6.30
2023-06-21T23:28:13.630Z,7.80
2023-06-21T23:30:44.204Z,7.90
2023-06-21T23:33:12.093Z,6.63
2023-06-21T23:35:40.887Z,5.57
2023-06-21T23:38:08.631Z,5.43
2023-06-21T23:40:37.420Z,6.90
2023-06-21T23:43:05.544Z,8.30
2023-06-21T23:45:39.350Z,6.63
2023-06-21T23:48:08.660Z,7.03
2023-06-21T23:50:36.425Z,8.53
2023-06-21T23:53:04.112Z,8.23
2023-06-21T23:55:31.722Z,6.93
2023-06-21T23:58:00.316Z,6.70
